sensor_id;sensor_type;location;lat;lon;timestamp;pressure;altitude;pressure_sealevel;temperature;humidity
2339;BME280;1180;51.438;6.978;2023-02-13T00:00:41;102401.16;;;12.11;81.24
2339;BME280;1180;51.438;6.978;2023-02-13T00:03:06;102401.38;;;12.05;81.59
2339;BME280;1180;51.438;6.978;2023-02-13T00:05:32;102398.16;;;11.96;81.64
2339;BME280;1180;51.438;6.978;2023-02-13T00:07:57;102399.06;;;11.95;82.06
2339;BME280;1180;51.438;6.978;2023-02-13T00:10:22;102390.47;;;11.95;81.70
2339;BME280;1180;51.438;6.978;2023-02-13T00:12:48;102394.63;;;12.01;81.79
2339;BME280;1180;51.438;6.978;2023-02-13T00:15:13;102383.78;;;11.89;81.81
2339;BME280;1180;51.438;6.978;2023-02-13T00:17:38;102380.28;;;11.92;82.18
2339;BME280;1180;51.438;6.978;2023-02-13T00:20:05;102375.03;;;11.95;81.91
2339;BME280;1180;51.438;6.978;2023-02-13T00:22:34;102380.97;;;11.97;82.24
2339;BME280;1180;51.438;6.978;2023-02-13T00:24:59;102377.44;;;12.01;81.63
2339;BME280;1180;51.438;6.978;2023-02-13T00:27:25;102378.47;;;11.95;82.01
2339;BME280;1180;51.438;6.978;2023-02-13T00:29:50;102374.38;;;11.88;82.37
2339;BME280;1180;51.438;6.978;2023-02-13T00:32:16;102379.53;;;11.88;82.44
2339;BME280;1180;51.438;6.978;2023-02-13T00:34:41;102377.75;;;11.90;82.07
2339;BME280;1180;51.438;6.978;2023-02-13T00:37:08;102376.91;;;11.90;81.92
2339;BME280;1180;51.438;6.978;2023-02-13T00:39:33;102373.69;;;11.83;81.48
2339;BME280;1180;51.438;6.978;2023-02-13T00:41:58;102369.31;;;11.85;81.93
2339;BME280;1180;51.438;6.978;2023-02-13T00:44:24;102367.41;;;11.92;81.33
2339;BME280;1180;51.438;6.978;2023-02-13T00:46:49;102374.28;;;11.91;81.78
2339;BME280;1180;51.438;6.978;2023-02-13T00:49:14;102370.38;;;11.79;81.96
2339;BME280;1180;51.438;6.978;2023-02-13T00:51:40;102374.47;;;11.85;82.21
2339;BME280;1180;51.438;6.978;2023-02-13T00:54:05;102372.34;;;11.99;81.85
2339;BME280;1180;51.438;6.978;2023-02-13T00:56:30;102371.47;;;11.99;81.65
2339;BME280;1180;51.438;6.978;2023-02-13T00:58:55;102369.75;;;11.99;80.93
2339;BME280;1180;51.438;6.978;2023-02-13T01:01:21;102368.25;;;11.92;81.20
2339;BME280;1180;51.438;6.978;2023-02-13T01:03:46;102372.31;;;12.01;81.06
2339;BME280;1180;51.438;6.978;2023-02-13T01:06:11;102370.75;;;11.95;81.35
2339;BME280;1180;51.438;6.978;2023-02-13T01:08:40;102368.41;;;11.88;81.35
2339;BME280;1180;51.438;6.978;2023-02-13T01:11:06;102365.34;;;11.75;81.65
2339;BME280;1180;51.438;6.978;2023-02-13T01:13:32;102370.44;;;11.76;81.77
2339;BME280;1180;51.438;6.978;2023-02-13T01:15:57;102374.34;;;11.90;81.34
2339;BME280;1180;51.438;6.978;2023-02-13T01:18:23;102371.00;;;11.86;81.38
2339;BME280;1180;51.438;6.978;2023-02-13T01:21:00;102365.94;;;11.84;81.48
2339;BME280;1180;51.438;6.978;2023-02-13T01:23:29;102365.88;;;11.86;81.39
2339;BME280;1180;51.438;6.978;2023-02-13T01:25:55;102370.41;;;11.78;81.18
2339;BME280;1180;51.438;6.978;2023-02-13T01:28:20;102367.84;;;11.78;81.60
2339;BME280;1180;51.438;6.978;2023-02-13T01:30:51;102369.22;;;11.88;81.07
2339;BME280;1180;51.438;6.978;2023-02-13T01:33:17;102369.19;;;11.90;81.17
2339;BME280;1180;51.438;6.978;2023-02-13T01:35:42;102362.41;;;11.87;80.88
2339;BME280;1180;51.438;6.978;2023-02-13T01:38:07;102368.50;;;11.84;81.16
2339;BME280;1180;51.438;6.978;2023-02-13T01:40:33;102370.09;;;11.89;81.09
2339;BME280;1180;51.438;6.978;2023-02-13T01:42:58;102369.38;;;11.83;81.00
2339;BME280;1180;51.438;6.978;2023-02-13T01:45:28;102363.34;;;11.84;81.31
2339;BME280;1180;51.438;6.978;2023-02-13T01:48:05;102368.59;;;11.81;81.01
2339;BME280;1180;51.438;6.978;2023-02-13T01:53:17;102357.63;;;11.75;81.43
2339;BME280;1180;51.438;6.978;2023-02-13T01:55:54;102357.63;;;11.75;81.51
2339;BME280;1180;51.438;6.978;2023-02-13T01:58:24;102357.22;;;11.89;81.21
2339;BME280;1180;51.438;6.978;2023-02-13T02:00:50;102354.53;;;11.93;80.88
2339;BME280;1180;51.438;6.978;2023-02-13T02:03:20;102354.44;;;11.95;80.65
2339;BME280;1180;51.438;6.978;2023-02-13T02:05:48;102353.06;;;11.84;80.83
2339;BME280;1180;51.438;6.978;2023-02-13T02:08:15;102353.69;;;11.91;81.01
2339;BME280;1180;51.438;6.978;2023-02-13T02:10:41;102346.97;;;11.87;81.13
2339;BME280;1180;51.438;6.978;2023-02-13T02:15:38;102344.72;;;11.76;81.35
2339;BME280;1180;51.438;6.978;2023-02-13T02:18:15;102349.13;;;11.73;81.44
2339;BME280;1180;51.438;6.978;2023-02-13T02:27:09;102343.09;;;11.74;81.48
2339;BME280;1180;51.438;6.978;2023-02-13T02:30:36;102345.06;;;11.65;81.68
2339;BME280;1180;51.438;6.978;2023-02-13T02:32:48;102345.41;;;11.53;82.10
2339;BME280;1180;51.438;6.978;2023-02-13T02:35:45;102345.19;;;11.61;82.61
2339;BME280;1180;51.438;6.978;2023-02-13T02:44:47;102354.38;;;11.69;81.57
2339;BME280;1180;51.438;6.978;2023-02-13T02:47:24;102344.09;;;11.69;81.42
2339;BME280;1180;51.438;6.978;2023-02-13T02:53:22;102348.44;;;11.67;81.52
2339;BME280;1180;51.438;6.978;2023-02-13T02:58:32;102342.44;;;11.67;81.13
2339;BME280;1180;51.438;6.978;2023-02-13T03:01:22;102347.63;;;11.65;81.38
2339;BME280;1180;51.438;6.978;2023-02-13T03:04:17;102350.31;;;11.32;82.35
2339;BME280;1180;51.438;6.978;2023-02-13T03:07:06;102348.94;;;11.20;83.62
2339;BME280;1180;51.438;6.978;2023-02-13T03:09:39;102349.84;;;11.48;83.19
2339;BME280;1180;51.438;6.978;2023-02-13T03:12:29;102343.97;;;11.44;82.53
2339;BME280;1180;51.438;6.978;2023-02-13T03:15:16;102345.28;;;11.27;83.15
2339;BME280;1180;51.438;6.978;2023-02-13T03:17:42;102341.00;;;11.28;83.28
2339;BME280;1180;51.438;6.978;2023-02-13T03:20:39;102347.81;;;11.29;83.03
2339;BME280;1180;51.438;6.978;2023-02-13T03:29:20;102344.13;;;11.38;81.68
2339;BME280;1180;51.438;6.978;2023-02-13T03:32:15;102348.56;;;11.33;81.93
2339;BME280;1180;51.438;6.978;2023-02-13T03:34:53;102350.94;;;11.40;82.11
2339;BME280;1180;51.438;6.978;2023-02-13T03:37:45;102350.84;;;11.42;81.58
2339;BME280;1180;51.438;6.978;2023-02-13T03:43:37;102348.22;;;11.45;81.19
2339;BME280;1180;51.438;6.978;2023-02-13T03:46:06;102358.63;;;11.40;81.04
2339;BME280;1180;51.438;6.978;2023-02-13T03:48:35;102360.31;;;11.41;81.07
2339;BME280;1180;51.438;6.978;2023-02-13T03:54:04;102360.69;;;11.29;81.37
2339;BME280;1180;51.438;6.978;2023-02-13T03:56:32;102366.75;;;11.26;81.40
2339;BME280;1180;51.438;6.978;2023-02-13T03:59:22;102359.59;;;11.06;81.96
2339;BME280;1180;51.438;6.978;2023-02-13T04:02:00;102362.59;;;11.21;82.34
2339;BME280;1180;51.438;6.978;2023-02-13T04:04:33;102364.94;;;11.30;81.36
2339;BME280;1180;51.438;6.978;2023-02-13T04:07:05;102368.44;;;11.26;81.23
2339;BME280;1180;51.438;6.978;2023-02-13T04:09:34;102365.41;;;11.13;81.98
2339;BME280;1180;51.438;6.978;2023-02-13T04:12:11;102363.72;;;11.12;82.06
2339;BME280;1180;51.438;6.978;2023-02-13T04:14:49;102359.22;;;11.19;82.38
2339;BME280;1180;51.438;6.978;2023-02-13T04:18:20;102357.31;;;11.27;81.79
2339;BME280;1180;51.438;6.978;2023-02-13T04:20:26;102351.28;;;11.28;81.47
2339;BME280;1180;51.438;6.978;2023-02-13T04:22:53;102355.78;;;11.20;81.63
2339;BME280;1180;51.438;6.978;2023-02-13T04:25:19;102356.47;;;11.25;81.81
2339;BME280;1180;51.438;6.978;2023-02-13T04:27:45;102359.78;;;11.30;81.63
2339;BME280;1180;51.438;6.978;2023-02-13T04:30:11;102359.78;;;11.30;81.32
2339;BME280;1180;51.438;6.978;2023-02-13T04:32:37;102354.75;;;11.27;81.79
2339;BME280;1180;51.438;6.978;2023-02-13T04:35:02;102354.91;;;11.21;81.80
2339;BME280;1180;51.438;6.978;2023-02-13T04:37:28;102353.28;;;11.17;82.01
2339;BME280;1180;51.438;6.978;2023-02-13T04:39:53;102350.88;;;11.12;82.52
2339;BME280;1180;51.438;6.978;2023-02-13T04:42:18;102353.22;;;11.20;82.39
2339;BME280;1180;51.438;6.978;2023-02-13T04:44:43;102354.81;;;11.24;82.31
2339;BME280;1180;51.438;6.978;2023-02-13T04:47:09;102361.56;;;11.28;82.17
2339;BME280;1180;51.438;6.978;2023-02-13T04:49:34;102354.09;;;11.19;82.07
2339;BME280;1180;51.438;6.978;2023-02-13T04:52:00;102351.66;;;11.14;82.54
2339;BME280;1180;51.438;6.978;2023-02-13T04:54:25;102354.00;;;11.22;82.03
2339;BME280;1180;51.438;6.978;2023-02-13T04:56:50;102357.59;;;11.16;82.48
2339;BME280;1180;51.438;6.978;2023-02-13T04:59:16;102350.03;;;11.11;83.11
2339;BME280;1180;51.438;6.978;2023-02-13T05:01:41;102347.34;;;11.15;83.41
2339;BME280;1180;51.438;6.978;2023-02-13T05:04:06;102346.53;;;11.14;82.85
2339;BME280;1180;51.438;6.978;2023-02-13T05:06:32;102350.03;;;11.11;82.82
2339;BME280;1180;51.438;6.978;2023-02-13T05:08:57;102345.69;;;11.13;82.86
2339;BME280;1180;51.438;6.978;2023-02-13T05:11:22;102343.81;;;11.19;82.87
2339;BME280;1180;51.438;6.978;2023-02-13T05:13:48;102345.66;;;11.15;82.62
2339;BME280;1180;51.438;6.978;2023-02-13T05:16:13;102349.00;;;11.17;83.04
2339;BME280;1180;51.438;6.978;2023-02-13T05:18:38;102344.75;;;11.16;82.64
2339;BME280;1180;51.438;6.978;2023-02-13T05:21:04;102346.38;;;11.19;82.78
2339;BME280;1180;51.438;6.978;2023-02-13T05:23:47;102345.75;;;11.12;82.90
2339;BME280;1180;51.438;6.978;2023-02-13T05:26:14;102347.47;;;11.10;83.15
2339;BME280;1180;51.438;6.978;2023-02-13T05:28:39;102340.34;;;11.20;82.67
2339;BME280;1180;51.438;6.978;2023-02-13T05:31:23;102342.81;;;11.24;82.48
2339;BME280;1180;51.438;6.978;2023-02-13T05:33:48;102334.34;;;11.21;82.61
2339;BME280;1180;51.438;6.978;2023-02-13T05:36:14;102331.84;;;11.18;82.81
2339;BME280;1180;51.438;6.978;2023-02-13T05:38:39;102329.09;;;11.24;82.76
2339;BME280;1180;51.438;6.978;2023-02-13T05:41:05;102329.84;;;11.29;81.94
2339;BME280;1180;51.438;6.978;2023-02-13T05:43:31;102334.88;;;11.32;82.39
2339;BME280;1180;51.438;6.978;2023-02-13T05:46:04;102334.22;;;11.25;82.27
2339;BME280;1180;51.438;6.978;2023-02-13T05:48:30;102332.94;;;11.09;82.90
2339;BME280;1180;51.438;6.978;2023-02-13T05:50:56;102332.88;;;11.12;83.10
2339;BME280;1180;51.438;6.978;2023-02-13T05:53:21;102336.47;;;11.05;83.38
2339;BME280;1180;51.438;6.978;2023-02-13T05:55:47;102335.03;;;10.96;83.56
2339;BME280;1180;51.438;6.978;2023-02-13T05:58:12;102335.59;;;11.06;83.13
2339;BME280;1180;51.438;6.978;2023-02-13T06:00:37;102337.25;;;11.08;83.11
2339;BME280;1180;51.438;6.978;2023-02-13T06:03:03;102340.81;;;11.03;82.86
2339;BME280;1180;51.438;6.978;2023-02-13T06:05:28;102342.59;;;11.01;83.18
2339;BME280;1180;51.438;6.978;2023-02-13T06:07:53;102336.72;;;10.97;83.13
2339;BME280;1180;51.438;6.978;2023-02-13T06:10:19;102329.00;;;10.97;83.01
2339;BME280;1180;51.438;6.978;2023-02-13T06:12:44;102331.72;;;10.91;82.90
2339;BME280;1180;51.438;6.978;2023-02-13T06:15:09;102334.63;;;10.78;83.62
2339;BME280;1180;51.438;6.978;2023-02-13T06:17:35;102330.03;;;10.90;83.24
2339;BME280;1180;51.438;6.978;2023-02-13T06:20:00;102329.16;;;10.91;83.00
2339;BME280;1180;51.438;6.978;2023-02-13T06:22:25;102329.31;;;10.84;83.02
2339;BME280;1180;51.438;6.978;2023-02-13T06:24:51;102329.69;;;10.71;83.62
2339;BME280;1180;51.438;6.978;2023-02-13T06:27:16;102326.38;;;10.67;83.85
2339;BME280;1180;51.438;6.978;2023-02-13T06:29:41;102323.81;;;10.67;83.68
2339;BME280;1180;51.438;6.978;2023-02-13T06:32:07;102320.53;;;10.62;83.75
2339;BME280;1180;51.438;6.978;2023-02-13T06:34:32;102325.94;;;10.51;84.67
2339;BME280;1180;51.438;6.978;2023-02-13T06:36:57;102322.59;;;10.47;84.69
2339;BME280;1180;51.438;6.978;2023-02-13T06:39:23;102328.38;;;10.55;84.10
2339;BME280;1180;51.438;6.978;2023-02-13T06:41:48;102323.38;;;10.51;84.20
2339;BME280;1180;51.438;6.978;2023-02-13T06:44:13;102319.34;;;10.39;84.90
2339;BME280;1180;51.438;6.978;2023-02-13T06:46:39;102319.63;;;10.26;84.87
2339;BME280;1180;51.438;6.978;2023-02-13T06:49:04;102317.94;;;10.27;85.08
2339;BME280;1180;51.438;6.978;2023-02-13T06:51:29;102317.13;;;10.25;84.80
2339;BME280;1180;51.438;6.978;2023-02-13T06:53:55;102309.91;;;10.05;85.88
2339;BME280;1180;51.438;6.978;2023-02-13T06:56:20;102315.06;;;10.03;86.23
2339;BME280;1180;51.438;6.978;2023-02-13T06:58:45;102319.25;;;10.07;86.45
2339;BME280;1180;51.438;6.978;2023-02-13T07:01:11;102314.31;;;10.00;86.58
2339;BME280;1180;51.438;6.978;2023-02-13T07:03:36;102323.63;;;10.02;86.55
2339;BME280;1180;51.438;6.978;2023-02-13T07:06:01;102322.88;;;9.99;86.59
2339;BME280;1180;51.438;6.978;2023-02-13T07:08:27;102323.75;;;9.97;86.92
2339;BME280;1180;51.438;6.978;2023-02-13T07:10:52;102325.31;;;10.03;86.44
2339;BME280;1180;51.438;6.978;2023-02-13T07:13:18;102326.25;;;10.01;86.36
2339;BME280;1180;51.438;6.978;2023-02-13T07:15:43;102333.16;;;9.97;86.60
2339;BME280;1180;51.438;6.978;2023-02-13T07:18:08;102337.31;;;10.03;86.31
2339;BME280;1180;51.438;6.978;2023-02-13T07:20:34;102335.25;;;10.19;86.31
2339;BME280;1180;51.438;6.978;2023-02-13T07:23:01;102342.16;;;10.15;85.41
2339;BME280;1180;51.438;6.978;2023-02-13T07:25:27;102344.78;;;10.12;85.90
2339;BME280;1180;51.438;6.978;2023-02-13T07:27:53;102342.25;;;10.10;86.33
2339;BME280;1180;51.438;6.978;2023-02-13T07:30:19;102339.81;;;10.06;86.21
2339;BME280;1180;51.438;6.978;2023-02-13T07:32:45;102345.16;;;9.96;86.44
2339;BME280;1180;51.438;6.978;2023-02-13T07:35:10;102340.06;;;9.95;87.21
2339;BME280;1180;51.438;6.978;2023-02-13T07:37:36;102345.78;;;10.06;87.02
2339;BME280;1180;51.438;6.978;2023-02-13T07:40:01;102348.47;;;10.02;86.83
2339;BME280;1180;51.438;6.978;2023-02-13T07:42:31;102347.38;;;10.10;86.71
2339;BME280;1180;51.438;6.978;2023-02-13T07:44:57;102352.41;;;10.17;86.54
2339;BME280;1180;51.438;6.978;2023-02-13T07:47:22;102357.53;;;10.17;85.53
2339;BME280;1180;51.438;6.978;2023-02-13T07:49:48;102354.34;;;10.05;86.78
2339;BME280;1180;51.438;6.978;2023-02-13T07:52:13;102354.16;;;10.15;86.56
2339;BME280;1180;51.438;6.978;2023-02-13T07:54:39;102355.22;;;10.04;86.26
2339;BME280;1180;51.438;6.978;2023-02-13T07:57:14;102356.00;;;10.08;86.83
2339;BME280;1180;51.438;6.978;2023-02-13T07:59:39;102356.59;;;10.19;86.17
2339;BME280;1180;51.438;6.978;2023-02-13T08:02:05;102371.09;;;10.20;86.25
2339;BME280;1180;51.438;6.978;2023-02-13T08:04:30;102361.06;;;10.11;86.46
2339;BME280;1180;51.438;6.978;2023-02-13T08:06:55;102367.16;;;10.07;86.95
2339;BME280;1180;51.438;6.978;2023-02-13T08:09:21;102367.09;;;10.08;86.91
2339;BME280;1180;51.438;6.978;2023-02-13T08:12:06;102369.56;;;10.13;86.93
2339;BME280;1180;51.438;6.978;2023-02-13T08:14:32;102372.88;;;10.18;86.94
2339;BME280;1180;51.438;6.978;2023-02-13T08:16:59;102366.84;;;10.21;86.84
2339;BME280;1180;51.438;6.978;2023-02-13T08:19:25;102368.47;;;10.23;86.63
2339;BME280;1180;51.438;6.978;2023-02-13T08:21:51;102373.53;;;10.26;86.65
2339;BME280;1180;51.438;6.978;2023-02-13T08:24:16;102369.81;;;10.38;86.18
2339;BME280;1180;51.438;6.978;2023-02-13T08:26:43;102370.47;;;10.50;85.34
2339;BME280;1180;51.438;6.978;2023-02-13T08:29:08;102365.41;;;10.47;85.55
2339;BME280;1180;51.438;6.978;2023-02-13T08:31:35;102367.22;;;10.42;85.76
2339;BME280;1180;51.438;6.978;2023-02-13T08:34:01;102361.19;;;10.44;85.64
2339;BME280;1180;51.438;6.978;2023-02-13T08:36:26;102364.53;;;10.48;85.29
2339;BME280;1180;51.438;6.978;2023-02-13T08:38:52;102371.22;;;10.53;85.29
2339;BME280;1180;51.438;6.978;2023-02-13T08:41:17;102364.22;;;10.59;84.84
2339;BME280;1180;51.438;6.978;2023-02-13T08:43:44;102368.63;;;10.55;84.55
2339;BME280;1180;51.438;6.978;2023-02-13T08:46:10;102370.38;;;10.53;84.72
2339;BME280;1180;51.438;6.978;2023-02-13T08:48:35;102373.75;;;10.55;84.23
2339;BME280;1180;51.438;6.978;2023-02-13T08:51:07;102368.44;;;10.63;83.96
2339;BME280;1180;51.438;6.978;2023-02-13T08:53:34;102375.88;;;10.72;83.50
2339;BME280;1180;51.438;6.978;2023-02-13T08:55:59;102367.22;;;10.76;83.44
2339;BME280;1180;51.438;6.978;2023-02-13T08:58:25;102367.94;;;10.81;83.36
2339;BME280;1180;51.438;6.978;2023-02-13T09:00:50;102372.63;;;10.65;83.69
2339;BME280;1180;51.438;6.978;2023-02-13T09:03:15;102370.69;;;10.74;83.21
2339;BME280;1180;51.438;6.978;2023-02-13T09:05:41;102375.53;;;10.86;82.70
2339;BME280;1180;51.438;6.978;2023-02-13T09:08:06;102372.81;;;10.58;83.19
2339;BME280;1180;51.438;6.978;2023-02-13T09:10:33;102375.97;;;10.69;83.71
2339;BME280;1180;51.438;6.978;2023-02-13T09:12:59;102375.84;;;10.74;83.17
2339;BME280;1180;51.438;6.978;2023-02-13T09:15:25;102377.06;;;10.93;82.73
2339;BME280;1180;51.438;6.978;2023-02-13T09:17:51;102371.72;;;11.01;81.54
2339;BME280;1180;51.438;6.978;2023-02-13T09:20:17;102374.94;;;11.08;81.38
2339;BME280;1180;51.438;6.978;2023-02-13T09:22:42;102376.06;;;10.99;81.44
2339;BME280;1180;51.438;6.978;2023-02-13T09:25:08;102378.84;;;10.90;81.48
2339;BME280;1180;51.438;6.978;2023-02-13T09:27:33;102368.50;;;10.93;81.49
2339;BME280;1180;51.438;6.978;2023-02-13T09:30:00;102367.03;;;10.84;82.33
2339;BME280;1180;51.438;6.978;2023-02-13T09:32:25;102365.72;;;11.01;81.74
2339;BME280;1180;51.438;6.978;2023-02-13T09:34:51;102370.28;;;11.22;81.12
2339;BME280;1180;51.438;6.978;2023-02-13T09:37:17;102364.84;;;11.33;79.85
2339;BME280;1180;51.438;6.978;2023-02-13T09:39:42;102362.47;;;11.25;79.53
2339;BME280;1180;51.438;6.978;2023-02-13T09:42:26;102368.22;;;11.35;79.37
2339;BME280;1180;51.438;6.978;2023-02-13T09:44:57;102367.97;;;11.43;79.28
2339;BME280;1180;51.438;6.978;2023-02-13T09:47:31;102368.63;;;11.51;78.92
2339;BME280;1180;51.438;6.978;2023-02-13T09:50:06;102371.69;;;11.64;78.28
2339;BME280;1180;51.438;6.978;2023-02-13T09:52:36;102374.97;;;11.68;78.11
2339;BME280;1180;51.438;6.978;2023-02-13T09:55:09;102367.97;;;11.73;77.75
2339;BME280;1180;51.438;6.978;2023-02-13T09:58:02;102378.59;;;11.62;77.31
2339;BME280;1180;51.438;6.978;2023-02-13T10:00:42;102376.16;;;11.58;77.88
2339;BME280;1180;51.438;6.978;2023-02-13T10:06:06;102377.94;;;11.84;77.33
2339;BME280;1180;51.438;6.978;2023-02-13T10:08:50;102374.13;;;11.97;76.82
2339;BME280;1180;51.438;6.978;2023-02-13T10:14:18;102383.06;;;12.14;75.95
2339;BME280;1180;51.438;6.978;2023-02-13T10:16:59;102379.69;;;12.12;75.16
2339;BME280;1180;51.438;6.978;2023-02-13T10:19:36;102380.69;;;12.08;74.86
2339;BME280;1180;51.438;6.978;2023-02-13T10:22:11;102385.63;;;12.14;74.17
2339;BME280;1180;51.438;6.978;2023-02-13T10:24:52;102383.84;;;12.16;74.26
2339;BME280;1180;51.438;6.978;2023-02-13T10:27:33;102389.44;;;12.29;74.25
2339;BME280;1180;51.438;6.978;2023-02-13T10:33:12;102383.97;;;12.40;73.39
2339;BME280;1180;51.438;6.978;2023-02-13T10:38:35;102376.91;;;12.45;74.01
2339;BME280;1180;51.438;6.978;2023-02-13T10:41:30;102372.94;;;12.62;74.09
2339;BME280;1180;51.438;6.978;2023-02-13T10:49:20;102370.84;;;12.73;71.31
2339;BME280;1180;51.438;6.978;2023-02-13T10:54:58;102371.97;;;12.39;72.28
2339;BME280;1180;51.438;6.978;2023-02-13T11:02:56;102357.88;;;12.24;73.13
2339;BME280;1180;51.438;6.978;2023-02-13T11:05:40;102360.75;;;12.15;73.70
2339;BME280;1180;51.438;6.978;2023-02-13T11:08:17;102346.13;;;12.42;73.23
2339;BME280;1180;51.438;6.978;2023-02-13T11:10:44;102347.19;;;12.62;72.49
2339;BME280;1180;51.438;6.978;2023-02-13T11:13:21;102344.72;;;12.84;71.97
2339;BME280;1180;51.438;6.978;2023-02-13T11:15:59;102337.88;;;13.07;71.49
2339;BME280;1180;51.438;6.978;2023-02-13T11:18:28;102330.66;;;13.17;70.56
2339;BME280;1180;51.438;6.978;2023-02-13T11:21:19;102317.25;;;13.07;69.60
2339;BME280;1180;51.438;6.978;2023-02-13T11:23:50;102319.41;;;13.19;69.77
2339;BME280;1180;51.438;6.978;2023-02-13T11:26:30;102315.69;;;12.79;69.61
2339;BME280;1180;51.438;6.978;2023-02-13T11:29:04;102319.34;;;12.71;70.68
2339;BME280;1180;51.438;6.978;2023-02-13T11:31:33;102317.59;;;12.97;69.89
2339;BME280;1180;51.438;6.978;2023-02-13T11:34:23;102318.03;;;13.09;69.33
2339;BME280;1180;51.438;6.978;2023-02-13T11:37:06;102308.19;;;13.20;68.31
2339;BME280;1180;51.438;6.978;2023-02-13T11:39:31;102309.75;;;13.24;68.59
2339;BME280;1180;51.438;6.978;2023-02-13T11:41:58;102316.09;;;13.38;67.42
2339;BME280;1180;51.438;6.978;2023-02-13T11:44:31;102308.00;;;13.49;67.49
2339;BME280;1180;51.438;6.978;2023-02-13T11:46:58;102306.75;;;13.59;66.43
2339;BME280;1180;51.438;6.978;2023-02-13T11:49:29;102304.41;;;13.53;66.06
2339;BME280;1180;51.438;6.978;2023-02-13T11:51:59;102299.16;;;13.32;67.83
2339;BME280;1180;51.438;6.978;2023-02-13T11:57:13;102297.31;;;13.58;66.13
2339;BME280;1180;51.438;6.978;2023-02-13T11:59:42;102295.56;;;13.81;66.09
2339;BME280;1180;51.438;6.978;2023-02-13T12:04:41;102282.44;;;14.08;64.23
2339;BME280;1180;51.438;6.978;2023-02-13T12:07:30;102279.88;;;14.28;64.62
2339;BME280;1180;51.438;6.978;2023-02-13T12:15:19;102280.00;;;14.25;62.42
2339;BME280;1180;51.438;6.978;2023-02-13T12:17:52;102284.66;;;14.38;62.13
2339;BME280;1180;51.438;6.978;2023-02-13T12:20:17;102274.53;;;14.52;62.26
2339;BME280;1180;51.438;6.978;2023-02-13T12:23:06;102274.78;;;14.67;61.51
2339;BME280;1180;51.438;6.978;2023-02-13T12:26:33;102267.22;;;14.83;62.18
2339;BME280;1180;51.438;6.978;2023-02-13T12:28:55;102269.03;;;14.60;61.36
2339;BME280;1180;51.438;6.978;2023-02-13T12:31:42;102267.28;;;14.81;61.40
2339;BME280;1180;51.438;6.978;2023-02-13T12:45:37;102250.06;;;14.61;62.03
2339;BME280;1180;51.438;6.978;2023-02-13T12:54:18;102245.13;;;15.14;60.85
2339;BME280;1180;51.438;6.978;2023-02-13T12:57:10;102237.66;;;15.27;60.68
2339;BME280;1180;51.438;6.978;2023-02-13T13:02:32;102230.97;;;15.40;60.33
2339;BME280;1180;51.438;6.978;2023-02-13T13:08:27;102224.34;;;15.52;59.87
2339;BME280;1180;51.438;6.978;2023-02-13T13:16:52;102225.66;;;15.61;59.60
2339;BME280;1180;51.438;6.978;2023-02-13T13:19:52;102224.13;;;15.57;57.84
2339;BME280;1180;51.438;6.978;2023-02-13T13:22:29;102221.47;;;15.22;58.72
2339;BME280;1180;51.438;6.978;2023-02-13T13:25:11;102215.47;;;15.21;59.34
2339;BME280;1180;51.438;6.978;2023-02-13T13:27:45;102216.41;;;15.38;59.95
2339;BME280;1180;51.438;6.978;2023-02-13T13:30:31;102212.91;;;15.21;59.84
2339;BME280;1180;51.438;6.978;2023-02-13T13:33:14;102215.50;;;15.39;59.62
2339;BME280;1180;51.438;6.978;2023-02-13T13:36:06;102204.56;;;15.69;58.67
2339;BME280;1180;51.438;6.978;2023-02-13T13:38:59;102196.88;;;15.85;57.12
2339;BME280;1180;51.438;6.978;2023-02-13T13:41:42;102199.72;;;15.80;57.48
2339;BME280;1180;51.438;6.978;2023-02-13T13:46:58;102201.44;;;15.44;57.72
2339;BME280;1180;51.438;6.978;2023-02-13T13:49:34;102196.34;;;15.60;57.56
2339;BME280;1180;51.438;6.978;2023-02-13T13:52:31;102196.25;;;15.44;58.03
2339;BME280;1180;51.438;6.978;2023-02-13T13:54:56;102196.28;;;15.62;58.63
2339;BME280;1180;51.438;6.978;2023-02-13T13:57:25;102190.16;;;15.81;57.64
2339;BME280;1180;51.438;6.978;2023-02-13T13:59:56;102195.28;;;16.00;57.96
2339;BME280;1180;51.438;6.978;2023-02-13T14:07:53;102184.50;;;16.25;56.65
2339;BME280;1180;51.438;6.978;2023-02-13T14:12:47;102170.81;;;16.55;54.50
2339;BME280;1180;51.438;6.978;2023-02-13T14:20:42;102171.56;;;16.89;54.09
2339;BME280;1180;51.438;6.978;2023-02-13T14:23:34;102166.38;;;16.89;53.32
2339;BME280;1180;51.438;6.978;2023-02-13T14:28:41;102164.88;;;16.85;53.51
2339;BME280;1180;51.438;6.978;2023-02-13T14:31:17;102153.34;;;16.91;53.80
2339;BME280;1180;51.438;6.978;2023-02-13T14:33:54;102160.38;;;17.05;53.09
2339;BME280;1180;51.438;6.978;2023-02-13T14:36:22;102160.44;;;17.03;52.64
2339;BME280;1180;51.438;6.978;2023-02-13T14:39:19;102167.16;;;17.08;53.43
2339;BME280;1180;51.438;6.978;2023-02-13T14:46:44;102163.19;;;17.16;53.00
2339;BME280;1180;51.438;6.978;2023-02-13T14:49:25;102151.72;;;17.21;52.71
2339;BME280;1180;51.438;6.978;2023-02-13T14:52:16;102156.56;;;17.27;53.07
2339;BME280;1180;51.438;6.978;2023-02-13T14:54:49;102153.47;;;17.20;52.45
2339;BME280;1180;51.438;6.978;2023-02-13T14:57:19;102147.75;;;16.99;52.54
2339;BME280;1180;51.438;6.978;2023-02-13T14:59:55;102156.94;;;17.04;52.24
2339;BME280;1180;51.438;6.978;2023-02-13T15:02:25;102148.81;;;17.11;52.31
2339;BME280;1180;51.438;6.978;2023-02-13T15:05:05;102150.56;;;17.10;51.94
2339;BME280;1180;51.438;6.978;2023-02-13T15:07:36;102152.94;;;16.99;52.70
2339;BME280;1180;51.438;6.978;2023-02-13T15:10:14;102147.78;;;16.97;53.04
2339;BME280;1180;51.438;6.978;2023-02-13T15:12:55;102144.78;;;17.21;53.11
2339;BME280;1180;51.438;6.978;2023-02-13T15:15:24;102146.47;;;17.37;52.29
2339;BME280;1180;51.438;6.978;2023-02-13T15:17:54;102141.41;;;17.50;51.83
2339;BME280;1180;51.438;6.978;2023-02-13T15:20:25;102143.94;;;17.66;51.79
2339;BME280;1180;51.438;6.978;2023-02-13T15:22:51;102143.13;;;17.65;51.91
2339;BME280;1180;51.438;6.978;2023-02-13T15:25:37;102140.53;;;17.65;51.07
2339;BME280;1180;51.438;6.978;2023-02-13T15:28:05;102132.44;;;17.55;51.11
2339;BME280;1180;51.438;6.978;2023-02-13T15:30:34;102140.53;;;17.80;52.52
2339;BME280;1180;51.438;6.978;2023-02-13T15:33:16;102133.22;;;18.01;51.15
2339;BME280;1180;51.438;6.978;2023-02-13T15:35:42;102131.28;;;18.04;50.23